Time;durP1;ratioP1;P1;durP2;ratioP2;P2;SDS_P1;SDS_P2;PMS_P1;PMS_P2;Temp;Humidity;BMP_temperature;BMP_pressure;BME280_temperature;BME280_humidity;BME280_pressure;Samples;Min_cycle;Max_cycle;Signal;HPM_P1;HPM_P2
2023/12/26 00:02:08;;;;;;;1999.90;999.90;;;9.60;99.90;;;;;;5062948;28;20044;-81
2023/12/26 00:04:34;;;;;;;1999.90;999.90;;;9.50;99.90;;;;;;5068563;28;20043;-81
2023/12/26 00:06:59;;;;;;;1999.90;999.90;;;9.50;99.90;;;;;;5078510;28;20032;-81
2023/12/26 00:09:25;;;;;;;1999.90;999.90;;;9.50;99.90;;;;;;5077943;28;20517;-81
2023/12/26 00:11:51;;;;;;;1999.90;999.90;;;9.50;99.90;;;;;;5061848;28;20454;-80
2023/12/26 00:14:17;;;;;;;1999.90;999.90;;;9.50;99.90;;;;;;5061411;28;20059;-81
2023/12/26 00:16:46;;;;;;;1999.90;999.90;;;9.50;99.90;;;;;;5055608;28;20067;-81
2023/12/26 00:19:11;;;;;;;1999.90;999.90;;;9.50;99.90;;;;;;5060874;28;20040;-81
2023/12/26 00:21:38;;;;;;;1999.90;999.90;;;9.60;99.90;;;;;;5078464;28;20048;-81
2023/12/26 00:24:04;;;;;;;1999.90;999.90;;;9.60;99.90;;;;;;5077827;28;20037;-81
2023/12/26 00:26:30;;;;;;;1999.90;999.90;;;9.60;99.90;;;;;;5062044;28;20059;-81
2023/12/26 00:28:56;;;;;;;1999.90;999.90;;;9.50;99.90;;;;;;5076664;28;20056;-80
2023/12/26 00:31:21;;;;;;;1999.90;999.90;;;9.60;99.90;;;;;;5077111;28;20074;-81
2023/12/26 00:33:53;;;;;;;1999.90;999.90;;;9.60;99.90;;;;;;5077608;28;20082;-81
2023/12/26 00:36:20;;;;;;;1999.90;999.90;;;9.60;99.90;;;;;;5061355;28;20086;-81
2023/12/26 00:38:46;;;;;;;1999.90;999.90;;;9.60;99.90;;;;;;5078442;28;20066;-81
2023/12/26 00:41:13;;;;;;;1999.90;999.90;;;9.60;99.90;;;;;;5061787;28;20484;-81
2023/12/26 00:43:39;;;;;;;1999.90;999.90;;;9.60;99.90;;;;;;5077101;28;20037;-81
2023/12/26 00:46:06;;;;;;;1999.90;999.90;;;9.60;99.90;;;;;;5062379;28;20047;-81
2023/12/26 00:48:32;;;;;;;1999.90;999.90;;;9.70;99.90;;;;;;5062258;28;20051;-81
2023/12/26 00:50:58;;;;;;;1999.90;999.90;;;9.70;99.90;;;;;;5061750;28;20059;-81
2023/12/26 00:53:24;;;;;;;1999.90;999.90;;;9.70;99.90;;;;;;5061958;28;20040;-81
2023/12/26 00:55:50;;;;;;;1999.90;999.90;;;9.60;99.90;;;;;;5061751;28;20036;-81
2023/12/26 00:58:16;;;;;;;1999.90;999.90;;;9.70;99.90;;;;;;5060379;28;20036;-82
2023/12/26 01:00:41;;;;;;;1999.90;999.90;;;9.70;99.90;;;;;;5061544;28;20035;-81
2023/12/26 01:03:09;;;;;;;1999.90;999.90;;;9.70;99.90;;;;;;5060612;28;20436;-80
2023/12/26 01:05:35;;;;;;;1999.90;999.90;;;9.70;99.90;;;;;;5076320;28;20045;-81
2023/12/26 01:08:00;;;;;;;1999.90;999.90;;;9.70;99.90;;;;;;5061070;28;20110;-81
2023/12/26 01:10:26;;;;;;;1999.90;999.90;;;9.70;99.90;;;;;;5063047;28;20028;-81
2023/12/26 01:12:52;;;;;;;1999.90;999.90;;;9.70;99.90;;;;;;5078073;28;20090;-81
2023/12/26 01:15:18;;;;;;;1999.90;999.90;;;9.70;99.90;;;;;;5060641;28;20093;-81
2023/12/26 01:17:44;;;;;;;1999.90;999.90;;;9.70;99.90;;;;;;5076732;28;20041;-83
2023/12/26 01:20:10;;;;;;;1999.90;999.90;;;9.70;99.90;;;;;;5077342;28;20031;-81
2023/12/26 01:22:36;;;;;;;1999.90;999.90;;;9.70;99.90;;;;;;5060645;28;20310;-81
2023/12/26 01:25:05;;;;;;;1999.90;999.90;;;9.70;99.90;;;;;;5077416;28;20040;-81
2023/12/26 01:27:31;;;;;;;1999.90;999.90;;;9.70;99.90;;;;;;5075906;28;20072;-81
2023/12/26 01:29:57;;;;;;;1999.90;999.90;;;9.70;99.90;;;;;;5060080;28;20100;-81
2023/12/26 01:32:22;;;;;;;1999.90;999.90;;;9.60;99.90;;;;;;5060242;28;20068;-81
2023/12/26 01:34:48;;;;;;;1999.90;999.90;;;9.70;99.90;;;;;;5078633;28;20032;-81
2023/12/26 01:37:14;;;;;;;1999.90;999.90;;;9.60;99.90;;;;;;5077225;28;20059;-81
2023/12/26 01:39:40;;;;;;;1999.90;999.90;;;9.70;99.90;;;;;;5078605;28;20033;-81
2023/12/26 01:42:06;;;;;;;1999.90;999.90;;;9.60;99.90;;;;;;5078255;28;20515;-80
2023/12/26 01:44:32;;;;;;;1999.90;999.90;;;9.70;99.90;;;;;;5078347;28;20115;-80
2023/12/26 01:46:58;;;;;;;1999.90;999.90;;;9.60;99.90;;;;;;5060175;28;20047;-81
2023/12/26 01:49:24;;;;;;;1999.90;999.90;;;9.60;99.90;;;;;;5060715;28;20485;-81
2023/12/26 01:51:52;;;;;;;1999.90;999.90;;;9.60;99.90;;;;;;5061430;28;20036;-81
2023/12/26 01:54:19;;;;;;;1999.90;999.90;;;9.60;99.90;;;;;;5080328;28;20048;-80
2023/12/26 01:56:47;;;;;;;1999.90;999.90;;;9.70;99.90;;;;;;5074191;28;20040;-81
2023/12/26 01:59:14;;;;;;;1999.90;999.90;;;9.60;99.90;;;;;;5059019;28;20028;-81
2023/12/26 02:01:39;;;;;;;1999.90;999.90;;;9.60;99.90;;;;;;5060762;28;20049;-81
2023/12/26 02:04:05;;;;;;;1999.90;999.90;;;9.60;99.90;;;;;;5067443;28;20044;-81
2023/12/26 02:06:33;;;;;;;1999.90;999.90;;;9.60;99.90;;;;;;5076803;28;20036;-81
2023/12/26 02:08:59;;;;;;;1999.90;999.90;;;9.60;99.90;;;;;;5076011;28;20045;-81
2023/12/26 02:11:24;;;;;;;1999.90;999.90;;;9.50;99.90;;;;;;5076504;28;20051;-81
2023/12/26 02:13:50;;;;;;;1999.90;999.90;;;9.60;99.90;;;;;;5074498;28;20036;-81
2023/12/26 02:16:18;;;;;;;1999.90;999.90;;;9.50;99.90;;;;;;5059319;28;20408;-81
2023/12/26 02:18:44;;;;;;;1999.90;999.90;;;9.60;99.90;;;;;;5075563;28;20036;-81
2023/12/26 02:21:11;;;;;;;1999.90;999.90;;;9.50;99.90;;;;;;5076724;28;20033;-81
2023/12/26 02:23:38;;;;;;;1999.90;999.90;;;9.50;99.90;;;;;;5077068;28;20496;-81
2023/12/26 02:26:05;;;;;;;1999.90;999.90;;;9.60;99.90;;;;;;5062409;28;20044;-81
2023/12/26 02:28:33;;;;;;;1999.90;999.90;;;9.50;99.90;;;;;;5059574;28;20032;-81
2023/12/26 02:31:04;;;;;;;1999.90;999.90;;;9.50;99.90;;;;;;5060233;28;20036;-81
2023/12/26 02:33:30;;;;;;;1999.90;999.90;;;9.50;99.90;;;;;;5059352;28;20116;-81
2023/12/26 02:36:01;;;;;;;1999.90;999.90;;;9.30;99.90;;;;;;5060371;28;20037;-81
2023/12/26 02:38:27;;;;;;;1999.90;999.90;;;9.50;99.90;;;;;;5058254;28;20496;-81
2023/12/26 02:40:53;;;;;;;1999.90;999.90;;;9.50;99.90;;;;;;5080684;28;20036;-80
2023/12/26 02:43:22;;;;;;;1999.90;999.90;;;9.50;99.90;;;;;;5062485;28;20040;-81
2023/12/26 02:45:49;;;;;;;1999.90;999.90;;;9.50;99.90;;;;;;5062037;28;20424;-81
2023/12/26 02:48:18;;;;;;;1999.90;999.90;;;9.40;99.90;;;;;;5062636;28;20033;-81
2023/12/26 02:50:45;;;;;;;1999.90;999.90;;;9.40;99.90;;;;;;5063687;28;20658;-81
2023/12/26 02:53:11;;;;;;;1999.90;999.90;;;9.40;99.90;;;;;;5063352;28;20047;-81
2023/12/26 02:55:37;;;;;;;1999.90;999.90;;;9.40;99.90;;;;;;5063891;28;20523;-81
2023/12/26 02:58:03;;;;;;;1999.90;999.90;;;9.30;99.90;;;;;;5080529;28;20057;-81
2023/12/26 03:00:29;;;;;;;1999.90;999.90;;;9.30;99.90;;;;;;5063053;28;20497;-81
2023/12/26 03:02:55;;;;;;;1999.90;999.90;;;9.30;99.90;;;;;;5079549;28;20032;-81
2023/12/26 03:05:20;;;;;;;1999.90;999.90;;;9.20;99.90;;;;;;5063466;28;20036;-81
2023/12/26 03:07:46;;;;;;;1999.90;999.90;;;9.10;99.90;;;;;;5062951;28;20078;-81
2023/12/26 03:10:12;;;;;;;1999.90;999.90;;;9.10;99.90;;;;;;5080005;28;20052;-81
2023/12/26 03:12:37;;;;;;;1999.90;999.90;;;9.00;99.90;;;;;;5063108;28;20043;-81
2023/12/26 03:15:04;;;;;;;1999.90;999.90;;;9.00;99.90;;;;;;5062402;28;20051;-81
2023/12/26 03:17:30;;;;;;;1999.90;999.90;;;9.00;99.90;;;;;;5079957;28;20029;-81
2023/12/26 03:19:56;;;;;;;1999.90;999.90;;;8.90;99.90;;;;;;5079676;28;20115;-81
2023/12/26 03:22:21;;;;;;;1999.90;999.90;;;8.80;99.90;;;;;;5064603;28;20033;-81
2023/12/26 03:24:47;;;;;;;1999.90;999.90;;;8.80;99.90;;;;;;5080585;28;20044;-81
2023/12/26 03:27:14;;;;;;;1999.90;999.90;;;8.80;99.90;;;;;;5081220;28;20066;-81
2023/12/26 03:29:40;;;;;;;1999.90;999.90;;;8.80;99.90;;;;;;5095880;28;20044;-81
2023/12/26 03:32:08;;;;;;;1999.90;999.90;;;8.80;99.90;;;;;;5062801;28;20043;-81
2023/12/26 03:34:33;;;;;;;1999.90;999.90;;;8.80;99.90;;;;;;5078214;28;20524;-81
2023/12/26 03:36:59;;;;;;;1999.90;999.90;;;8.80;99.90;;;;;;5061364;28;20036;-81
2023/12/26 03:39:25;;;;;;;1999.90;999.90;;;8.70;99.90;;;;;;5062290;28;20119;-81
2023/12/26 03:41:50;;;;;;;1999.90;999.90;;;8.60;99.90;;;;;;5061874;28;20044;-81
2023/12/26 03:44:16;;;;;;;1999.90;999.90;;;8.60;99.90;;;;;;5061310;28;20127;-81
2023/12/26 03:46:43;;;;;;;1999.90;999.90;;;8.50;99.90;;;;;;5060823;28;20033;-81
2023/12/26 03:49:09;;;;;;;1999.90;999.90;;;8.50;99.90;;;;;;5078185;28;20066;-81
2023/12/26 03:51:34;;;;;;;1999.90;999.90;;;8.40;99.90;;;;;;5076849;28;20036;-81
2023/12/26 03:54:01;;;;;;;1999.90;999.90;;;8.30;99.90;;;;;;5060583;28;20029;-82
2023/12/26 03:56:31;;;;;;;1999.90;999.90;;;8.30;99.90;;;;;;5062269;28;20404;-81
2023/12/26 03:58:57;;;;;;;1999.90;999.90;;;8.20;99.90;;;;;;5059800;28;20466;-81
2023/12/26 04:01:23;;;;;;;1999.90;999.90;;;8.10;99.90;;;;;;5062545;28;20044;-81
2023/12/26 04:03:49;;;;;;;1999.90;999.90;;;8.10;99.90;;;;;;5078874;28;20509;-81
2023/12/26 04:06:15;;;;;;;1999.90;999.90;;;8.10;99.90;;;;;;5077617;28;20044;-81
2023/12/26 04:08:42;;;;;;;1999.90;999.90;;;8.10;99.90;;;;;;5061231;28;20119;-81
2023/12/26 04:11:11;;;;;;;1999.90;999.90;;;8.00;99.90;;;;;;5077382;28;20393;-81
2023/12/26 04:13:37;;;;;;;1999.90;999.90;;;7.90;99.90;;;;;;5060887;28;20489;-81
2023/12/26 04:16:06;;;;;;;1999.90;999.90;;;7.80;99.90;;;;;;5062064;28;20063;-81
2023/12/26 04:18:32;;;;;;;1999.90;999.90;;;7.70;99.90;;;;;;5077612;28;20040;-81
2023/12/26 04:20:58;;;;;;;1999.90;999.90;;;7.70;99.90;;;;;;5074690;28;20056;-81
2023/12/26 04:23:24;;;;;;;1999.90;999.90;;;7.60;99.90;;;;;;5077456;28;20134;-82
2023/12/26 04:25:50;;;;;;;1999.90;999.90;;;7.60;99.90;;;;;;5060708;28;20028;-80
2023/12/26 04:28:15;;;;;;;1999.90;999.90;;;7.60;99.90;;;;;;5072883;28;20565;-80
2023/12/26 04:30:41;;;;;;;1999.90;999.90;;;7.50;99.90;;;;;;5058092;28;20040;-81
2023/12/26 04:33:10;;;;;;;1999.90;999.90;;;7.50;99.90;;;;;;5061251;28;20487;-81
2023/12/26 04:35:36;;;;;;;1999.90;999.90;;;7.50;99.90;;;;;;5076784;28;20048;-81
2023/12/26 04:38:02;;;;;;;1999.90;999.90;;;7.50;99.90;;;;;;5061407;28;20087;-81
2023/12/26 04:40:29;;;;;;;1999.90;999.90;;;7.50;99.90;;;;;;5077755;28;20039;-81
2023/12/26 04:42:54;;;;;;;1999.90;999.90;;;7.40;99.90;;;;;;5061527;28;20045;-81
2023/12/26 04:45:20;;;;;;;1999.90;999.90;;;7.30;99.90;;;;;;5060435;28;20036;-80
2023/12/26 04:47:46;;;;;;;1999.90;999.90;;;7.30;99.90;;;;;;5061306;28;20040;-81
2023/12/26 04:50:12;;;;;;;1999.90;999.90;;;7.30;99.90;;;;;;5061121;28;20041;-81
2023/12/26 04:52:38;;;;;;;1999.90;999.90;;;7.30;99.90;;;;;;5077359;28;20048;-81
2023/12/26 04:55:04;;;;;;;1999.90;999.90;;;7.30;99.90;;;;;;5060768;28;20029;-81
2023/12/26 04:57:29;;;;;;;1999.90;999.90;;;7.30;99.90;;;;;;5059716;28;20079;-81
2023/12/26 04:59:55;;;;;;;1999.90;999.90;;;7.30;99.90;;;;;;5060815;28;20041;-81
2023/12/26 05:02:21;;;;;;;1999.90;999.90;;;7.20;99.90;;;;;;5076687;28;20121;-81
2023/12/26 05:04:47;;;;;;;1999.90;999.90;;;7.30;99.90;;;;;;5077765;28;20046;-81
2023/12/26 05:07:13;;;;;;;1999.90;999.90;;;7.20;99.90;;;;;;5077898;28;20036;-81
2023/12/26 05:09:38;;;;;;;1999.90;999.90;;;7.10;99.90;;;;;;5061154;28;20075;-81
2023/12/26 05:12:04;;;;;;;1999.90;999.90;;;7.10;99.90;;;;;;5074683;28;20607;-81
2023/12/26 05:14:30;;;;;;;1999.90;999.90;;;7.10;99.90;;;;;;5074058;28;20033;-81
2023/12/26 05:16:56;;;;;;;1999.90;999.90;;;7.00;99.90;;;;;;5076348;28;20035;-81
2023/12/26 05:19:22;;;;;;;1999.90;999.90;;;7.00;99.90;;;;;;5060616;28;20032;-81
2023/12/26 05:21:48;;;;;;;1999.90;999.90;;;7.10;99.90;;;;;;5059906;28;20109;-81
2023/12/26 05:24:13;;;;;;;1999.90;999.90;;;7.10;99.90;;;;;;5075343;28;20055;-81
2023/12/26 05:26:43;;;;;;;1999.90;999.90;;;7.10;99.90;;;;;;5074657;28;20060;-81
2023/12/26 05:29:10;;;;;;;1999.90;999.90;;;7.10;99.90;;;;;;5057156;28;20040;-81
2023/12/26 05:31:37;;;;;;;1999.90;999.90;;;7.10;99.90;;;;;;5075850;28;20045;-81
2023/12/26 05:34:07;;;;;;;1999.90;999.90;;;7.30;99.90;;;;;;5058533;28;20119;-81
2023/12/26 05:36:33;;;;;;;1999.90;999.90;;;7.30;99.90;;;;;;5060059;28;20029;-81
2023/12/26 05:38:59;;;;;;;1999.90;999.90;;;7.40;99.90;;;;;;5060285;28;20032;-81
2023/12/26 05:41:27;;;;;;;1999.90;999.90;;;7.50;99.90;;;;;;5059438;28;20036;-81
2023/12/26 05:43:53;;;;;;;1999.90;999.90;;;7.50;99.90;;;;;;5059861;28;20040;-81
2023/12/26 05:46:20;;;;;;;1999.90;999.90;;;7.60;99.90;;;;;;5076108;28;20108;-81
2023/12/26 05:48:46;;;;;;;1999.90;999.90;;;7.60;99.90;;;;;;5076819;28;20090;-81
2023/12/26 05:51:12;;;;;;;1999.90;999.90;;;7.70;99.90;;;;;;5059375;28;20048;-81
2023/12/26 05:53:37;;;;;;;1999.90;999.90;;;7.70;99.90;;;;;;5059913;28;20036;-81
2023/12/26 05:56:03;;;;;;;1999.90;999.90;;;7.80;99.90;;;;;;5076125;28;20116;-81
2023/12/26 05:58:29;;;;;;;1999.90;999.90;;;7.80;99.90;;;;;;5074136;28;20044;-81
2023/12/26 06:00:54;;;;;;;1999.90;999.90;;;7.80;99.90;;;;;;5059214;28;20052;-81
2023/12/26 06:03:20;;;;;;;1999.90;999.90;;;7.80;99.90;;;;;;5074672;28;20041;-81
2023/12/26 06:05:47;;;;;;;1999.90;999.90;;;7.90;99.90;;;;;;5059105;28;20544;-81
2023/12/26 06:08:13;;;;;;;1999.90;999.90;;;7.90;99.90;;;;;;5075564;28;20033;-81
2023/12/26 06:10:39;;;;;;;1999.90;999.90;;;7.90;99.90;;;;;;5055148;28;20056;-82
2023/12/26 06:13:05;;;;;;;1999.90;999.90;;;7.90;99.90;;;;;;5059378;28;20513;-80
2023/12/26 06:15:31;;;;;;;1999.90;999.90;;;8.00;99.90;;;;;;5077715;28;20515;-81
2023/12/26 06:17:59;;;;;;;1999.90;999.90;;;8.00;99.90;;;;;;5079389;28;20052;-81
2023/12/26 06:20:26;;;;;;;1999.90;999.90;;;8.00;99.90;;;;;;5063746;28;20040;-81
2023/12/26 06:22:55;;;;;;;1999.90;999.90;;;8.00;99.90;;;;;;5063492;28;20052;-80
2023/12/26 06:25:20;;;;;;;1999.90;999.90;;;8.00;99.90;;;;;;5060737;28;20041;-81
2023/12/26 06:27:46;;;;;;;1999.90;999.90;;;8.00;99.90;;;;;;5064725;28;20094;-81
2023/12/26 06:30:12;;;;;;;1999.90;999.90;;;8.00;99.90;;;;;;5064951;28;20043;-81
2023/12/26 06:32:38;;;;;;;1999.90;999.90;;;8.10;99.90;;;;;;5064773;28;20041;-81
2023/12/26 06:35:04;;;;;;;1999.90;999.90;;;8.00;99.90;;;;;;5065092;28;20044;-80
2023/12/26 06:37:30;;;;;;;1999.90;999.90;;;8.00;99.90;;;;;;5064879;28;20146;-81
2023/12/26 06:39:56;;;;;;;1999.90;999.90;;;8.00;99.90;;;;;;5081997;28;20162;-81
2023/12/26 06:42:22;;;;;;;1999.90;999.90;;;8.00;99.90;;;;;;5066102;28;20036;-81
2023/12/26 06:44:47;;;;;;;1999.90;999.90;;;8.00;99.90;;;;;;5065116;28;20119;-81
2023/12/26 06:47:13;;;;;;;1999.90;999.90;;;7.90;99.90;;;;;;5065130;28;20064;-81
2023/12/26 06:49:46;;;;;;;1999.90;999.90;;;7.90;99.90;;;;;;5082069;28;20040;-81
2023/12/26 06:52:14;;;;;;;1999.90;999.90;;;7.80;99.90;;;;;;5066968;28;20051;-81
2023/12/26 06:54:41;;;;;;;1999.90;999.90;;;7.90;99.90;;;;;;5080957;28;20052;-80
2023/12/26 06:57:08;;;;;;;1999.90;999.90;;;7.90;99.90;;;;;;5082105;28;20084;-81
2023/12/26 06:59:34;;;;;;;1999.90;999.90;;;7.90;99.90;;;;;;5064514;28;20040;-81
2023/12/26 07:02:00;;;;;;;1999.90;999.90;;;8.00;99.90;;;;;;5081146;28;20037;-81
2023/12/26 07:04:27;;;;;;;1999.90;999.90;;;7.90;99.90;;;;;;5081501;28;20069;-81
2023/12/26 07:06:52;;;;;;;1999.90;999.90;;;7.90;99.90;;;;;;5065148;28;20043;-80
2023/12/26 07:09:18;;;;;;;1999.90;999.90;;;7.40;99.90;;;;;;5065746;28;20407;-82
2023/12/26 07:11:44;;;;;;;1999.90;999.90;;;7.90;99.90;;;;;;5081758;28;20037;-81
2023/12/26 07:14:09;;;;;;;1999.90;999.90;;;7.90;99.90;;;;;;5065150;28;20036;-80
2023/12/26 07:16:35;;;;;;;1999.90;999.90;;;7.90;99.90;;;;;;5063930;28;20051;-81
2023/12/26 07:19:02;;;;;;;1999.90;999.90;;;7.90;99.90;;;;;;5090819;28;20040;-81
2023/12/26 07:21:27;;;;;;;1999.90;999.90;;;7.90;99.90;;;;;;5065028;28;20075;-81
2023/12/26 07:23:53;;;;;;;1999.90;999.90;;;7.90;99.90;;;;;;5067976;28;20036;-81
2023/12/26 07:26:21;;;;;;;1999.90;999.90;;;7.80;99.90;;;;;;5082337;28;20136;-81
2023/12/26 07:28:47;;;;;;;1999.90;999.90;;;7.90;99.90;;;;;;5079752;28;20055;-81
2023/12/26 07:31:22;;;;;;;1999.90;999.90;;;7.90;99.90;;;;;;5074756;28;20036;-80
2023/12/26 07:33:51;;;;;;;1999.90;999.90;;;7.90;99.90;;;;;;5060311;28;20085;-81
2023/12/26 07:36:17;;;;;;;1999.90;999.90;;;8.00;99.90;;;;;;5064286;28;20033;-81
2023/12/26 07:38:43;;;;;;;1999.90;999.90;;;8.00;99.90;;;;;;5080662;28;20028;-82
2023/12/26 07:41:09;;;;;;;1999.90;999.90;;;8.10;99.90;;;;;;5065095;28;20079;-81
2023/12/26 07:43:35;;;;;;;1999.90;999.90;;;8.10;99.90;;;;;;5063580;28;20070;-80
2023/12/26 07:46:01;;;;;;;1999.90;999.90;;;8.10;99.90;;;;;;5063673;28;20041;-81
2023/12/26 07:48:26;;;;;;;1999.90;999.90;;;8.20;99.90;;;;;;5080496;28;20557;-82
2023/12/26 07:50:52;;;;;;;1999.90;999.90;;;8.10;99.90;;;;;;5080589;28;20032;-81
2023/12/26 07:53:18;;;;;;;1999.90;999.90;;;8.20;99.90;;;;;;5063687;28;20125;-81
2023/12/26 07:55:43;;;;;;;1999.90;999.90;;;8.20;99.90;;;;;;5063384;28;20098;-81
2023/12/26 07:58:09;;;;;;;1999.90;999.90;;;8.30;99.90;;;;;;5064332;28;20039;-80
2023/12/26 08:00:35;;;;;;;1999.90;999.90;;;8.30;99.90;;;;;;5063570;28;20048;-81
2023/12/26 08:03:01;;;;;;;1999.90;999.90;;;8.30;99.90;;;;;;5064787;28;20036;-80
2023/12/26 08:05:27;;;;;;;1999.90;999.90;;;8.30;99.90;;;;;;5065217;28;20090;-80
2023/12/26 08:07:52;;;;;;;1999.90;999.90;;;8.30;99.90;;;;;;5064399;28;20036;-81
2023/12/26 08:10:18;;;;;;;1999.90;999.90;;;8.30;99.90;;;;;;5063474;28;20075;-82
2023/12/26 08:12:44;;;;;;;1999.90;999.90;;;8.30;99.90;;;;;;5064561;28;20044;-83
2023/12/26 08:15:10;;;;;;;1999.90;999.90;;;8.30;99.90;;;;;;5065929;28;20037;-80
2023/12/26 08:17:36;;;;;;;1999.90;999.90;;;8.30;99.90;;;;;;5060979;28;20070;-80
2023/12/26 08:20:03;;;;;;;1999.90;999.90;;;8.40;99.90;;;;;;5063347;28;20097;-80
2023/12/26 08:22:29;;;;;;;1999.90;999.90;;;8.30;99.90;;;;;;5079758;28;20088;-81
2023/12/26 08:24:55;;;;;;;1999.90;999.90;;;8.30;99.90;;;;;;5064561;28;20098;-81
2023/12/26 08:27:22;;;;;;;1999.90;999.90;;;8.30;99.90;;;;;;5062904;28;20065;-81
2023/12/26 08:29:49;;;;;;;1999.90;999.90;;;8.30;99.90;;;;;;5061505;28;20032;-81
2023/12/26 08:32:15;;;;;;;1999.90;999.90;;;8.30;99.90;;;;;;5079828;28;20044;-83
2023/12/26 08:34:44;;;;;;;1999.90;999.90;;;8.40;99.90;;;;;;5083389;28;20033;-81
2023/12/26 08:37:11;;;;;;;1999.90;999.90;;;8.30;99.90;;;;;;5082434;28;20040;-80
2023/12/26 08:39:37;;;;;;;1999.90;999.90;;;8.40;99.90;;;;;;5065184;28;20044;-81
2023/12/26 08:42:03;;;;;;;1999.90;999.90;;;8.30;99.90;;;;;;5083736;28;20112;-81
2023/12/26 08:44:28;;;;;;;1999.90;999.90;;;8.30;99.90;;;;;;5066006;28;20082;-81
2023/12/26 08:46:54;;;;;;;1999.90;999.90;;;8.40;99.90;;;;;;5084045;28;20037;-82
2023/12/26 08:49:20;;;;;;;1999.90;999.90;;;8.40;99.90;;;;;;5085594;28;20044;-82
2023/12/26 08:51:46;;;;;;;1999.90;999.90;;;8.40;99.90;;;;;;5070521;28;20047;-82
2023/12/26 08:54:12;;;;;;;1999.90;999.90;;;8.40;99.90;;;;;;5069548;28;20037;-85
2023/12/26 08:56:39;;;;;;;1999.90;999.90;;;8.40;99.90;;;;;;5068315;28;20036;-84
2023/12/26 08:59:05;;;;;;;1999.90;999.90;;;9.20;99.90;;;;;;5083311;28;20520;-83
2023/12/26 09:01:31;;;;;;;1999.90;999.90;;;8.40;99.90;;;;;;5083656;28;20070;-82
2023/12/26 09:03:56;;;;;;;1999.90;999.90;;;8.40;99.90;;;;;;5064138;28;20028;-81
2023/12/26 09:06:22;;;;;;;1999.90;999.90;;;8.40;99.90;;;;;;5064475;28;20039;-82
2023/12/26 09:08:48;;;;;;;1999.90;999.90;;;8.40;99.90;;;;;;5080816;28;20036;-83
2023/12/26 09:11:13;;;;;;;1999.90;999.90;;;8.40;99.90;;;;;;5066611;28;20036;-83
2023/12/26 09:13:39;;;;;;;1999.90;999.90;;;8.40;99.90;;;;;;5066579;28;20059;-83
2023/12/26 09:16:05;;;;;;;1999.90;999.90;;;8.40;99.90;;;;;;5080569;28;20036;-84
2023/12/26 09:18:31;;;;;;;1999.90;999.90;;;8.40;99.90;;;;;;5068213;28;20033;-83
2023/12/26 09:20:56;;;;;;;1999.90;999.90;;;8.40;99.90;;;;;;5069198;28;20040;-84
2023/12/26 09:23:22;;;;;;;1999.90;999.90;;;8.40;99.90;;;;;;5068573;28;20036;-83
2023/12/26 09:25:48;;;;;;;1999.90;999.90;;;8.40;99.90;;;;;;5067977;28;20063;-82
2023/12/26 09:28:14;;;;;;;1999.90;999.90;;;8.40;99.90;;;;;;5068085;28;20284;-84
2023/12/26 09:30:40;;;;;;;1999.90;999.90;;;8.40;99.90;;;;;;5067238;28;20096;-83
2023/12/26 09:33:05;;;;;;;1999.90;999.90;;;8.50;99.90;;;;;;5065913;28;20063;-83
2023/12/26 09:35:31;;;;;;;1999.90;999.90;;;8.50;99.90;;;;;;5065288;28;20490;-84
2023/12/26 09:37:57;;;;;;;1999.90;999.90;;;8.50;99.90;;;;;;5076722;28;20036;-82
2023/12/26 09:40:22;;;;;;;1999.90;999.90;;;8.50;99.90;;;;;;5089197;28;20044;-85
2023/12/26 09:42:48;;;;;;;1999.90;999.90;;;8.50;99.90;;;;;;5067324;28;20044;-83
2023/12/26 09:45:15;;;;;;;1999.90;999.90;;;8.50;99.90;;;;;;5067341;28;20043;-84
2023/12/26 09:47:42;;;;;;;1999.90;999.90;;;8.60;99.90;;;;;;5084531;28;20040;-83
2023/12/26 09:50:09;;;;;;;1999.90;999.90;;;8.60;99.90;;;;;;5068939;28;20075;-84
2023/12/26 09:52:35;;;;;;;1999.90;999.90;;;8.60;99.90;;;;;;5068815;28;20056;-83
2023/12/26 09:55:02;;;;;;;1999.90;999.90;;;8.60;99.90;;;;;;5067979;28;20037;-83
2023/12/26 09:57:28;;;;;;;1999.90;999.90;;;8.60;99.90;;;;;;5065414;28;20051;-82
2023/12/26 09:59:55;;;;;;;1999.90;999.90;;;8.60;99.90;;;;;;5065640;28;20033;-84
2023/12/26 10:02:21;;;;;;;1999.90;999.90;;;8.60;99.90;;;;;;5052415;28;20033;-83
2023/12/26 10:04:48;;;;;;;1999.90;999.90;;;8.60;99.90;;;;;;5066796;28;20124;-85
2023/12/26 10:07:14;;;;;;;1999.90;999.90;;;8.70;99.90;;;;;;5061396;28;20040;-85
2023/12/26 10:09:41;;;;;;;1999.90;999.90;;;8.70;99.90;;;;;;5067633;28;20036;-83
2023/12/26 10:12:07;;;;;;;1999.90;999.90;;;8.70;99.90;;;;;;5064337;28;20207;-83
2023/12/26 10:14:32;;;;;;;1999.90;999.90;;;8.80;99.90;;;;;;5064112;28;20100;-81
2023/12/26 10:16:59;;;;;;;1999.90;999.90;;;8.90;99.90;;;;;;5066612;28;20041;-85
2023/12/26 10:19:25;;;;;;;1999.90;999.90;;;8.90;99.90;;;;;;5066102;28;20032;-80
2023/12/26 10:21:52;;;;;;;1999.90;999.90;;;9.00;99.90;;;;;;5055177;28;20040;-83
2023/12/26 10:24:18;;;;;;;1999.90;999.90;;;9.00;99.90;;;;;;5069558;28;20157;-84
2023/12/26 10:26:44;;;;;;;1999.90;999.90;;;9.00;99.90;;;;;;5049798;28;20057;-87
2023/12/26 10:29:16;;;;;;;1999.90;999.90;;;8.90;99.90;;;;;;5063717;28;20045;-86
2023/12/26 10:31:43;;;;;;;1999.90;999.90;;;8.90;99.90;;;;;;5051204;28;20037;-85
2023/12/26 10:34:17;;;;;;;1999.90;999.90;;;8.90;99.90;;;;;;5069841;28;20558;-86
2023/12/26 10:36:48;;;;;;;1999.90;999.90;;;9.00;99.90;;;;;;5053701;28;20493;-88
2023/12/26 10:39:14;;;;;;;1999.90;999.90;;;9.10;99.90;;;;;;5054106;28;20055;-84
2023/12/26 10:41:43;;;;;;;1999.90;999.90;;;9.10;99.90;;;;;;5053019;28;20037;-88
2023/12/26 10:44:10;;;;;;;1999.90;999.90;;;9.00;99.90;;;;;;5067551;28;20123;-89
2023/12/26 10:46:39;;;;;;;1999.90;999.90;;;9.10;99.90;;;;;;5052437;28;20040;-90
2023/12/26 10:49:07;;;;;;;1999.90;999.90;;;9.00;99.90;;;;;;5051705;28;20095;-90
2023/12/26 10:51:36;;;;;;;1999.90;999.90;;;9.00;99.90;;;;;;5067717;28;20060;-88
2023/12/26 10:54:14;;;;;;;1999.90;999.90;;;9.00;99.90;;;;;;5067782;28;20041;-88
2023/12/26 10:56:41;;;;;;;1999.90;999.90;;;9.00;99.90;;;;;;5048634;28;20410;-88
2023/12/26 10:59:08;;;;;;;1999.90;999.90;;;8.90;99.90;;;;;;5050280;28;20072;-88
2023/12/26 13:53:50;;;;;;;1999.90;999.90;;;8.80;99.90;;;;;;5084165;28;20048;-85
2023/12/26 13:56:16;;;;;;;1999.90;999.90;;;8.70;99.90;;;;;;5068915;28;20036;-84
2023/12/26 13:58:41;;;;;;;1999.90;999.90;;;8.70;99.90;;;;;;5085657;28;20037;-85
2023/12/26 14:01:08;;;;;;;1999.90;999.90;;;8.60;99.90;;;;;;5086617;28;20063;-85
2023/12/26 14:03:35;;;;;;;1999.90;999.90;;;8.50;99.90;;;;;;5069319;28;20041;-84
2023/12/26 14:06:01;;;;;;;1999.90;999.90;;;8.50;99.90;;;;;;5068976;28;20041;-85
2023/12/26 14:08:27;;;;;;;1999.90;999.90;;;8.40;99.90;;;;;;5084279;28;20036;-85
2023/12/26 14:10:53;;;;;;;1999.90;999.90;;;8.40;99.90;;;;;;5069639;28;20040;-85
2023/12/26 14:13:18;;;;;;;1999.90;999.90;;;8.40;99.90;;;;;;5068246;28;20036;-86
2023/12/26 14:15:44;;;;;;;1999.90;999.90;;;8.40;99.90;;;;;;5069318;28;20045;-85
2023/12/26 14:18:10;;;;;;;1999.90;999.90;;;8.30;99.90;;;;;;5068708;28;20033;-85
2023/12/26 14:20:36;;;;;;;1999.90;999.90;;;8.30;99.90;;;;;;5068503;28;20072;-85
2023/12/26 14:23:01;;;;;;;1999.90;999.90;;;8.20;99.90;;;;;;5068983;28;20040;-85
2023/12/26 14:25:28;;;;;;;1999.90;999.90;;;8.20;99.90;;;;;;5086261;28;20041;-84
2023/12/26 14:28:32;;;;;;;1999.90;999.90;;;8.10;99.90;;;;;;5085430;28;20060;-85
2023/12/26 14:31:35;;;;;;;1999.90;999.90;;;8.00;99.90;;;;;;5069090;28;20045;-84
2023/12/26 14:34:39;;;;;;;1999.90;999.90;;;8.00;99.90;;;;;;5099379;28;20058;-84
2023/12/26 14:37:42;;;;;;;1999.90;999.90;;;8.00;99.90;;;;;;5073476;28;20040;-85
2023/12/26 14:40:46;;;;;;;1999.90;999.90;;;7.90;99.90;;;;;;5072148;28;20068;-85
2023/12/26 14:43:53;;;;;;;1999.90;999.90;;;7.90;99.90;;;;;;5066749;28;20040;-85
2023/12/26 14:46:56;;;;;;;1999.90;999.90;;;7.80;99.90;;;;;;5071327;28;20094;-85
2023/12/26 14:50:00;;;;;;;1999.90;999.90;;;7.80;99.90;;;;;;5071266;28;20032;-86
2023/12/26 14:53:04;;;;;;;1999.90;999.90;;;7.70;99.90;;;;;;5088758;28;20133;-84
2023/12/26 14:56:08;;;;;;;1999.90;999.90;;;7.60;99.90;;;;;;5072295;28;20036;-86
2023/12/26 14:59:11;;;;;;;1999.90;999.90;;;7.50;99.90;;;;;;5086808;28;20070;-83
2023/12/26 15:01:57;;;;;;;1999.90;999.90;;;7.40;99.90;;;;;;5083839;28;20921;-85
2023/12/26 15:04:27;;;;;;;1999.90;999.90;;;7.40;99.90;;;;;;5072569;28;20286;-85